sensor_id;sensor_type;location;lat;lon;timestamp;pressure;altitude;pressure_sealevel;temperature;humidity
72486;BME280;60509;47.308;-122.428;2023-04-22T00:01:36;101886.12;;;19.80;21.84
72486;BME280;60509;47.308;-122.428;2023-04-22T00:03:54;101884.13;;;19.77;21.94
72486;BME280;60509;47.308;-122.428;2023-04-22T00:07:13;101882.85;;;20.42;22.10
72486;BME280;60509;47.308;-122.428;2023-04-22T00:09:39;101884.35;;;20.00;21.92
72486;BME280;60509;47.308;-122.428;2023-04-22T00:12:05;101880.89;;;20.26;21.83
72486;BME280;60509;47.308;-122.428;2023-04-22T00:14:30;101873.52;;;19.73;22.34
72486;BME280;60509;47.308;-122.428;2023-04-22T00:16:57;101871.79;;;20.39;22.37
72486;BME280;60509;47.308;-122.428;2023-04-22T00:19:22;101868.57;;;20.11;22.42
72486;BME280;60509;47.308;-122.428;2023-04-22T00:21:48;101868.91;;;20.27;22.64
72486;BME280;60509;47.308;-122.428;2023-04-22T00:24:14;101870.24;;;19.51;23.00
72486;BME280;60509;47.308;-122.428;2023-04-22T00:26:40;101867.85;;;21.40;22.11
72486;BME280;60509;47.308;-122.428;2023-04-22T00:29:06;101862.59;;;20.77;22.26
72486;BME280;60509;47.308;-122.428;2023-04-22T00:31:32;101863.99;;;20.93;22.24
72486;BME280;60509;47.308;-122.428;2023-04-22T00:33:58;101863.50;;;20.92;22.19
72486;BME280;60509;47.308;-122.428;2023-04-22T00:36:24;101862.83;;;20.71;22.50
72486;BME280;60509;47.308;-122.428;2023-04-22T00:38:50;101860.72;;;21.41;22.46
72486;BME280;60509;47.308;-122.428;2023-04-22T00:41:17;101852.75;;;21.31;22.39
72486;BME280;60509;47.308;-122.428;2023-04-22T00:43:42;101854.01;;;20.64;22.63
72486;BME280;60509;47.308;-122.428;2023-04-22T00:46:08;101855.31;;;20.68;22.85
72486;BME280;60509;47.308;-122.428;2023-04-22T00:48:34;101852.21;;;19.58;23.30
72486;BME280;60509;47.308;-122.428;2023-04-22T00:51:00;101846.57;;;20.08;23.20
72486;BME280;60509;47.308;-122.428;2023-04-22T00:53:26;101847.24;;;19.72;23.37
72486;BME280;60509;47.308;-122.428;2023-04-22T00:55:52;101848.83;;;19.44;23.54
72486;BME280;60509;47.308;-122.428;2023-04-22T00:58:18;101852.35;;;20.11;23.19
72486;BME280;60509;47.308;-122.428;2023-04-22T01:00:44;101860.11;;;19.12;23.65
72486;BME280;60509;47.308;-122.428;2023-04-22T01:03:10;101862.80;;;18.93;23.84
72486;BME280;60509;47.308;-122.428;2023-04-22T01:05:36;101861.00;;;19.40;23.81
72486;BME280;60509;47.308;-122.428;2023-04-22T01:08:02;101855.28;;;19.81;23.63
72486;BME280;60509;47.308;-122.428;2023-04-22T01:10:28;101862.88;;;19.35;23.91
72486;BME280;60509;47.308;-122.428;2023-04-22T01:12:54;101860.70;;;19.18;24.01
72486;BME280;60509;47.308;-122.428;2023-04-22T01:15:20;101863.13;;;18.85;24.32
72486;BME280;60509;47.308;-122.428;2023-04-22T01:17:46;101863.11;;;18.88;24.56
72486;BME280;60509;47.308;-122.428;2023-04-22T01:20:12;101865.28;;;18.95;24.49
72486;BME280;60509;47.308;-122.428;2023-04-22T01:22:41;101862.16;;;19.20;24.67
72486;BME280;60509;47.308;-122.428;2023-04-22T01:25:04;101858.90;;;19.16;24.68
72486;BME280;60509;47.308;-122.428;2023-04-22T01:27:30;101857.42;;;18.98;24.73
72486;BME280;60509;47.308;-122.428;2023-04-22T01:29:55;101858.38;;;19.28;24.59
72486;BME280;60509;47.308;-122.428;2023-04-22T01:32:21;101857.94;;;19.33;24.58
72486;BME280;60509;47.308;-122.428;2023-04-22T01:34:47;101853.86;;;18.74;24.78
72486;BME280;60509;47.308;-122.428;2023-04-22T01:37:13;101851.76;;;19.08;24.54
72486;BME280;60509;47.308;-122.428;2023-04-22T01:39:38;101851.73;;;19.57;24.66
72486;BME280;60509;47.308;-122.428;2023-04-22T01:42:05;101851.78;;;18.58;24.99
72486;BME280;60509;47.308;-122.428;2023-04-22T01:44:30;101849.75;;;18.88;24.93
72486;BME280;60509;47.308;-122.428;2023-04-22T01:46:57;101845.03;;;19.25;24.49
72486;BME280;60509;47.308;-122.428;2023-04-22T01:49:22;101840.14;;;18.85;24.77
72486;BME280;60509;47.308;-122.428;2023-04-22T01:51:48;101837.49;;;18.77;24.83
72486;BME280;60509;47.308;-122.428;2023-04-22T01:54:14;101839.52;;;18.82;24.92
72486;BME280;60509;47.308;-122.428;2023-04-22T01:56:40;101843.04;;;18.84;24.65
72486;BME280;60509;47.308;-122.428;2023-04-22T01:59:06;101843.49;;;18.98;24.86
72486;BME280;60509;47.308;-122.428;2023-04-22T02:01:32;101839.50;;;19.00;24.93
72486;BME280;60509;47.308;-122.428;2023-04-22T02:03:58;101834.72;;;19.18;25.00
72486;BME280;60509;47.308;-122.428;2023-04-22T02:06:24;101825.78;;;18.96;25.09
72486;BME280;60509;47.308;-122.428;2023-04-22T02:08:50;101821.59;;;19.24;24.75
72486;BME280;60509;47.308;-122.428;2023-04-22T02:11:16;101829.21;;;19.07;24.93
72486;BME280;60509;47.308;-122.428;2023-04-22T02:13:42;101826.74;;;19.11;24.94
72486;BME280;60509;47.308;-122.428;2023-04-22T02:16:08;101817.59;;;20.22;24.35
72486;BME280;60509;47.308;-122.428;2023-04-22T02:18:34;101816.79;;;19.89;24.49
72486;BME280;60509;47.308;-122.428;2023-04-22T02:21:00;101821.29;;;18.45;25.14
72486;BME280;60509;47.308;-122.428;2023-04-22T02:23:27;101814.72;;;18.33;24.72
72486;BME280;60509;47.308;-122.428;2023-04-22T02:25:53;101807.68;;;19.20;24.04
72486;BME280;60509;47.308;-122.428;2023-04-22T02:28:18;101802.56;;;18.62;24.23
72486;BME280;60509;47.308;-122.428;2023-04-22T02:30:45;101803.86;;;18.90;24.46
72486;BME280;60509;47.308;-122.428;2023-04-22T02:33:10;101807.04;;;19.31;24.46
72486;BME280;60509;47.308;-122.428;2023-04-22T02:35:36;101807.96;;;18.92;24.77
72486;BME280;60509;47.308;-122.428;2023-04-22T02:38:02;101807.11;;;19.13;24.72
72486;BME280;60509;47.308;-122.428;2023-04-22T02:40:28;101806.96;;;19.17;24.73
72486;BME280;60509;47.308;-122.428;2023-04-22T02:42:54;101808.39;;;19.73;24.64
72486;BME280;60509;47.308;-122.428;2023-04-22T02:45:20;101800.93;;;19.48;24.70
72486;BME280;60509;47.308;-122.428;2023-04-22T02:47:45;101795.92;;;19.43;24.70
72486;BME280;60509;47.308;-122.428;2023-04-22T02:50:12;101792.87;;;19.22;24.69
72486;BME280;60509;47.308;-122.428;2023-04-22T02:52:37;101790.52;;;18.76;24.84
72486;BME280;60509;47.308;-122.428;2023-04-22T02:55:04;101794.79;;;18.78;24.93
72486;BME280;60509;47.308;-122.428;2023-04-22T02:57:29;101794.29;;;19.02;25.04
72486;BME280;60509;47.308;-122.428;2023-04-22T02:59:55;101789.15;;;19.05;25.01
72486;BME280;60509;47.308;-122.428;2023-04-22T03:02:21;101786.52;;;18.83;25.07
72486;BME280;60509;47.308;-122.428;2023-04-22T03:04:47;101782.74;;;18.99;24.87
72486;BME280;60509;47.308;-122.428;2023-04-22T03:07:13;101784.28;;;18.62;25.17
72486;BME280;60509;47.308;-122.428;2023-04-22T03:09:39;101785.53;;;18.53;25.20
72486;BME280;60509;47.308;-122.428;2023-04-22T03:12:05;101785.15;;;18.83;24.99
72486;BME280;60509;47.308;-122.428;2023-04-22T03:14:31;101785.51;;;18.74;25.02
72486;BME280;60509;47.308;-122.428;2023-04-22T03:16:57;101782.45;;;18.89;24.85
72486;BME280;60509;47.308;-122.428;2023-04-22T03:19:23;101783.03;;;19.36;24.71
72486;BME280;60509;47.308;-122.428;2023-04-22T03:21:49;101787.62;;;18.43;25.03
72486;BME280;60509;47.308;-122.428;2023-04-22T03:24:15;101782.72;;;19.02;24.73
72486;BME280;60509;47.308;-122.428;2023-04-22T03:26:40;101788.39;;;18.83;24.98
72486;BME280;60509;47.308;-122.428;2023-04-22T03:29:06;101783.41;;;19.30;24.72
72486;BME280;60509;47.308;-122.428;2023-04-22T03:31:32;101782.28;;;19.15;24.47
72486;BME280;60509;47.308;-122.428;2023-04-22T03:33:58;101789.34;;;18.75;24.64
72486;BME280;60509;47.308;-122.428;2023-04-22T03:36:24;101791.84;;;18.47;24.39
72486;BME280;60509;47.308;-122.428;2023-04-22T03:38:50;101789.22;;;19.23;23.68
72486;BME280;60509;47.308;-122.428;2023-04-22T03:41:16;101783.81;;;18.73;23.81
72486;BME280;60509;47.308;-122.428;2023-04-22T03:43:42;101777.84;;;19.15;23.53
72486;BME280;60509;47.308;-122.428;2023-04-22T03:46:08;101787.57;;;19.73;23.38
72486;BME280;60509;47.308;-122.428;2023-04-22T03:48:34;101798.08;;;19.53;23.42
72486;BME280;60509;47.308;-122.428;2023-04-22T03:51:00;101805.75;;;19.42;23.56
72486;BME280;60509;47.308;-122.428;2023-04-22T03:53:26;101810.49;;;18.93;23.95
72486;BME280;60509;47.308;-122.428;2023-04-22T03:55:52;101813.12;;;19.00;23.92
72486;BME280;60509;47.308;-122.428;2023-04-22T03:58:18;101815.39;;;18.90;24.12
72486;BME280;60509;47.308;-122.428;2023-04-22T04:00:44;101813.38;;;19.79;23.41
72486;BME280;60509;47.308;-122.428;2023-04-22T04:03:10;101814.84;;;20.09;23.25
72486;BME280;60509;47.308;-122.428;2023-04-22T04:05:36;101815.36;;;20.03;23.32
72486;BME280;60509;47.308;-122.428;2023-04-22T04:08:02;101817.76;;;20.24;23.25
72486;BME280;60509;47.308;-122.428;2023-04-22T04:10:28;101826.83;;;18.67;23.91
72486;BME280;60509;47.308;-122.428;2023-04-22T04:12:54;101827.40;;;18.10;23.97
72486;BME280;60509;47.308;-122.428;2023-04-22T04:15:20;101823.94;;;18.43;23.55
72486;BME280;60509;47.308;-122.428;2023-04-22T04:17:46;101824.45;;;18.55;23.41
72486;BME280;60509;47.308;-122.428;2023-04-22T04:20:12;101819.44;;;18.94;23.18
72486;BME280;60509;47.308;-122.428;2023-04-22T04:22:37;101823.09;;;18.75;23.60
72486;BME280;60509;47.308;-122.428;2023-04-22T04:25:04;101817.03;;;20.10;22.95
72486;BME280;60509;47.308;-122.428;2023-04-22T04:27:30;101814.97;;;19.58;23.22
72486;BME280;60509;47.308;-122.428;2023-04-22T04:29:55;101815.63;;;19.60;23.05
72486;BME280;60509;47.308;-122.428;2023-04-22T04:32:22;101814.79;;;19.31;23.22
72486;BME280;60509;47.308;-122.428;2023-04-22T04:34:47;101812.64;;;19.57;23.08
72486;BME280;60509;47.308;-122.428;2023-04-22T04:37:13;101812.60;;;19.73;22.99
72486;BME280;60509;47.308;-122.428;2023-04-22T04:39:39;101813.44;;;20.03;23.08
72486;BME280;60509;47.308;-122.428;2023-04-22T04:42:05;101813.15;;;19.85;23.09
72486;BME280;60509;47.308;-122.428;2023-04-22T04:44:31;101819.59;;;18.70;23.42
72486;BME280;60509;47.308;-122.428;2023-04-22T04:46:57;101817.24;;;18.45;23.66
72486;BME280;60509;47.308;-122.428;2023-04-22T04:49:23;101812.12;;;18.88;23.37
72486;BME280;60509;47.308;-122.428;2023-04-22T04:51:49;101803.00;;;18.83;23.35
72486;BME280;60509;47.308;-122.428;2023-04-22T04:54:15;101798.86;;;18.95;23.16
72486;BME280;60509;47.308;-122.428;2023-04-22T04:56:41;101799.62;;;19.49;23.02
72486;BME280;60509;47.308;-122.428;2023-04-22T04:59:07;101801.81;;;19.13;23.44
72486;BME280;60509;47.308;-122.428;2023-04-22T05:01:33;101796.62;;;19.82;22.94
72486;BME280;60509;47.308;-122.428;2023-04-22T05:03:59;101796.53;;;19.54;22.94
72486;BME280;60509;47.308;-122.428;2023-04-22T05:06:24;101794.02;;;19.58;22.85
72486;BME280;60509;47.308;-122.428;2023-04-22T05:08:50;101794.29;;;19.75;22.85
72486;BME280;60509;47.308;-122.428;2023-04-22T05:11:16;101794.86;;;19.19;23.37
72486;BME280;60509;47.308;-122.428;2023-04-22T05:13:42;101794.76;;;19.29;23.22
72486;BME280;60509;47.308;-122.428;2023-04-22T05:16:09;101795.89;;;18.37;23.91
72486;BME280;60509;47.308;-122.428;2023-04-22T05:18:34;101796.23;;;18.32;23.82
72486;BME280;60509;47.308;-122.428;2023-04-22T05:21:00;101793.38;;;18.64;23.53
72486;BME280;60509;47.308;-122.428;2023-04-22T05:23:27;101796.02;;;18.62;23.38
72486;BME280;60509;47.308;-122.428;2023-04-22T05:25:52;101794.97;;;18.68;23.46
72486;BME280;60509;47.308;-122.428;2023-04-22T05:28:18;101790.09;;;19.73;22.98
72486;BME280;60509;47.308;-122.428;2023-04-22T05:30:44;101789.48;;;19.37;23.07
72486;BME280;60509;47.308;-122.428;2023-04-22T05:33:10;101787.48;;;19.47;22.99
72486;BME280;60509;47.308;-122.428;2023-04-22T05:35:36;101778.68;;;19.17;23.31
72486;BME280;60509;47.308;-122.428;2023-04-22T05:38:02;101762.78;;;18.99;23.34
72486;BME280;60509;47.308;-122.428;2023-04-22T05:40:28;101753.60;;;18.90;23.20
72486;BME280;60509;47.308;-122.428;2023-04-22T05:42:55;101755.08;;;18.94;23.35
72486;BME280;60509;47.308;-122.428;2023-04-22T05:45:20;101759.57;;;19.50;23.18
72486;BME280;60509;47.308;-122.428;2023-04-22T05:47:46;101761.77;;;19.32;23.18
72486;BME280;60509;47.308;-122.428;2023-04-22T05:50:12;101765.76;;;19.69;22.94
72486;BME280;60509;47.308;-122.428;2023-04-22T05:52:37;101764.58;;;18.94;23.36
72486;BME280;60509;47.308;-122.428;2023-04-22T05:55:04;101763.01;;;19.55;23.18
72486;BME280;60509;47.308;-122.428;2023-04-22T05:57:30;101767.15;;;18.87;23.58
72486;BME280;60509;47.308;-122.428;2023-04-22T05:59:55;101759.76;;;18.81;23.57
72486;BME280;60509;47.308;-122.428;2023-04-22T06:02:21;101752.26;;;18.77;23.50
72486;BME280;60509;47.308;-122.428;2023-04-22T06:04:47;101745.80;;;18.52;23.49
72486;BME280;60509;47.308;-122.428;2023-04-22T06:07:13;101741.78;;;18.51;23.26
72486;BME280;60509;47.308;-122.428;2023-04-22T06:09:39;101739.64;;;19.16;23.29
72486;BME280;60509;47.308;-122.428;2023-04-22T06:12:05;101736.60;;;19.42;22.95
72486;BME280;60509;47.308;-122.428;2023-04-22T06:14:31;101736.77;;;19.51;23.11
72486;BME280;60509;47.308;-122.428;2023-04-22T06:16:57;101738.94;;;19.20;23.22
72486;BME280;60509;47.308;-122.428;2023-04-22T06:19:23;101739.36;;;19.09;23.30
72486;BME280;60509;47.308;-122.428;2023-04-22T06:21:48;101736.74;;;19.47;23.10
72486;BME280;60509;47.308;-122.428;2023-04-22T06:24:15;101737.02;;;18.96;23.37
72486;BME280;60509;47.308;-122.428;2023-04-22T06:26:41;101734.90;;;18.30;23.84
72486;BME280;60509;47.308;-122.428;2023-04-22T06:29:07;101726.08;;;18.40;23.71
72486;BME280;60509;47.308;-122.428;2023-04-22T06:31:32;101719.88;;;18.20;23.81
72486;BME280;60509;47.308;-122.428;2023-04-22T06:33:58;101707.39;;;18.38;23.77
72486;BME280;60509;47.308;-122.428;2023-04-22T06:36:25;101701.20;;;18.31;23.61
72486;BME280;60509;47.308;-122.428;2023-04-22T06:38:50;101696.87;;;18.69;23.42
72486;BME280;60509;47.308;-122.428;2023-04-22T06:41:17;101693.49;;;18.68;23.62
72486;BME280;60509;47.308;-122.428;2023-04-22T06:43:42;101694.17;;;18.63;23.84
72486;BME280;60509;47.308;-122.428;2023-04-22T06:46:08;101691.68;;;19.13;23.41
72486;BME280;60509;47.308;-122.428;2023-04-22T06:48:34;101695.85;;;19.07;23.69
72486;BME280;60509;47.308;-122.428;2023-04-22T06:51:00;101695.98;;;19.15;23.57
72486;BME280;60509;47.308;-122.428;2023-04-22T06:53:26;101698.79;;;18.95;24.03
72486;BME280;60509;47.308;-122.428;2023-04-22T06:55:52;101701.04;;;19.11;24.14
72486;BME280;60509;47.308;-122.428;2023-04-22T06:58:18;101699.53;;;18.47;24.46
72486;BME280;60509;47.308;-122.428;2023-04-22T07:00:44;101694.17;;;18.82;23.89
72486;BME280;60509;47.308;-122.428;2023-04-22T07:03:10;101685.40;;;18.88;24.35
72486;BME280;60509;47.308;-122.428;2023-04-22T07:05:36;101683.94;;;18.98;24.16
72486;BME280;60509;47.308;-122.428;2023-04-22T07:08:02;101682.90;;;19.00;24.35
72486;BME280;60509;47.308;-122.428;2023-04-22T07:10:28;101684.00;;;18.48;24.53
72486;BME280;60509;47.308;-122.428;2023-04-22T07:12:54;101680.65;;;17.88;24.50
72486;BME280;60509;47.308;-122.428;2023-04-22T07:15:20;101671.36;;;18.60;23.71
72486;BME280;60509;47.308;-122.428;2023-04-22T07:17:46;101667.58;;;18.76;23.87
72486;BME280;60509;47.308;-122.428;2023-04-22T07:20:11;101663.11;;;18.59;24.00
72486;BME280;60509;47.308;-122.428;2023-04-22T07:22:37;101661.67;;;18.68;24.16
72486;BME280;60509;47.308;-122.428;2023-04-22T07:25:04;101661.41;;;19.32;23.93
72486;BME280;60509;47.308;-122.428;2023-04-22T07:27:29;101657.86;;;18.97;23.87
72486;BME280;60509;47.308;-122.428;2023-04-22T07:29:55;101656.44;;;18.88;24.06
72486;BME280;60509;47.308;-122.428;2023-04-22T07:32:21;101656.34;;;18.82;24.22
72486;BME280;60509;47.308;-122.428;2023-04-22T07:34:47;101658.40;;;19.15;24.77
72486;BME280;60509;47.308;-122.428;2023-04-22T07:37:13;101660.70;;;18.86;25.56
72486;BME280;60509;47.308;-122.428;2023-04-22T07:39:39;101660.16;;;19.10;25.76
72486;BME280;60509;47.308;-122.428;2023-04-22T07:42:05;101659.39;;;18.76;26.35
72486;BME280;60509;47.308;-122.428;2023-04-22T07:44:31;101660.81;;;18.43;25.83
72486;BME280;60509;47.308;-122.428;2023-04-22T07:46:58;101655.76;;;18.71;25.38
72486;BME280;60509;47.308;-122.428;2023-04-22T07:49:23;101654.27;;;18.47;25.27
72486;BME280;60509;47.308;-122.428;2023-04-22T07:51:49;101653.73;;;18.49;25.38
72486;BME280;60509;47.308;-122.428;2023-04-22T07:54:15;101650.47;;;18.91;25.15
72486;BME280;60509;47.308;-122.428;2023-04-22T07:56:41;101649.43;;;18.93;25.20
72486;BME280;60509;47.308;-122.428;2023-04-22T07:59:07;101643.18;;;19.15;25.10
72486;BME280;60509;47.308;-122.428;2023-04-22T08:01:33;101636.56;;;19.21;24.97
72486;BME280;60509;47.308;-122.428;2023-04-22T08:03:59;101630.74;;;19.40;24.76
72486;BME280;60509;47.308;-122.428;2023-04-22T08:06:25;101634.34;;;18.72;25.17
72486;BME280;60509;47.308;-122.428;2023-04-22T08:08:51;101634.65;;;18.88;24.92
72486;BME280;60509;47.308;-122.428;2023-04-22T08:11:17;101635.52;;;19.40;24.68
72486;BME280;60509;47.308;-122.428;2023-04-22T08:13:43;101633.15;;;18.67;25.06
72486;BME280;60509;47.308;-122.428;2023-04-22T08:16:09;101631.78;;;17.92;25.06
72486;BME280;60509;47.308;-122.428;2023-04-22T08:18:35;101632.63;;;18.26;25.09
72486;BME280;60509;47.308;-122.428;2023-04-22T08:21:01;101633.96;;;18.07;25.26
72486;BME280;60509;47.308;-122.428;2023-04-22T08:23:27;101632.86;;;19.28;24.14
72486;BME280;60509;47.308;-122.428;2023-04-22T08:25:53;101630.08;;;19.74;23.69
72486;BME280;60509;47.308;-122.428;2023-04-22T08:28:18;101626.92;;;20.84;22.96
72486;BME280;60509;47.308;-122.428;2023-04-22T08:30:44;101624.71;;;21.02;22.74
72486;BME280;60509;47.308;-122.428;2023-04-22T08:33:10;101622.59;;;20.99;22.73
72486;BME280;60509;47.308;-122.428;2023-04-22T08:35:36;101621.56;;;20.36;22.92
72486;BME280;60509;47.308;-122.428;2023-04-22T08:38:02;101617.01;;;20.46;22.92
72486;BME280;60509;47.308;-122.428;2023-04-22T08:40:28;101612.37;;;20.55;23.07
72486;BME280;60509;47.308;-122.428;2023-04-22T08:42:55;101603.64;;;20.43;23.19
72486;BME280;60509;47.308;-122.428;2023-04-22T08:45:20;101599.82;;;19.75;23.78
72486;BME280;60509;47.308;-122.428;2023-04-22T08:47:47;101601.11;;;20.03;23.68
72486;BME280;60509;47.308;-122.428;2023-04-22T08:50:12;101603.15;;;19.12;24.28
72486;BME280;60509;47.308;-122.428;2023-04-22T08:52:38;101602.50;;;19.56;23.62
72486;BME280;60509;47.308;-122.428;2023-04-22T08:55:05;101595.53;;;19.29;23.57
72486;BME280;60509;47.308;-122.428;2023-04-22T08:57:31;101596.14;;;20.69;23.04
72486;BME280;60509;47.308;-122.428;2023-04-22T08:59:56;101598.06;;;20.29;23.02
72486;BME280;60509;47.308;-122.428;2023-04-22T09:02:23;101599.45;;;19.98;23.45
72486;BME280;60509;47.308;-122.428;2023-04-22T09:04:50;101595.13;;;19.94;23.13
72486;BME280;60509;47.308;-122.428;2023-04-22T09:07:18;101589.25;;;19.51;23.59
72486;BME280;60509;47.308;-122.428;2023-04-22T09:09:41;101592.38;;;19.83;23.39
72486;BME280;60509;47.308;-122.428;2023-04-22T09:12:06;101592.42;;;20.68;22.97
72486;BME280;60509;47.308;-122.428;2023-04-22T09:14:33;101587.47;;;20.62;22.95
72486;BME280;60509;47.308;-122.428;2023-04-22T09:16:58;101576.21;;;20.37;23.23
72486;BME280;60509;47.308;-122.428;2023-04-22T09:19:24;101574.37;;;20.03;23.28
72486;BME280;60509;47.308;-122.428;2023-04-22T09:21:50;101569.99;;;20.03;23.42
72486;BME280;60509;47.308;-122.428;2023-04-22T09:24:16;101568.98;;;19.57;23.77
72486;BME280;60509;47.308;-122.428;2023-04-22T09:26:42;101565.32;;;18.86;24.05
72486;BME280;60509;47.308;-122.428;2023-04-22T09:29:13;101561.37;;;18.78;23.80
72486;BME280;60509;47.308;-122.428;2023-04-22T09:31:34;101554.52;;;18.68;23.63
72486;BME280;60509;47.308;-122.428;2023-04-22T09:34:00;101548.91;;;19.13;23.27
72486;BME280;60509;47.308;-122.428;2023-04-22T09:36:26;101547.08;;;19.15;23.40
72486;BME280;60509;47.308;-122.428;2023-04-22T09:38:53;101539.36;;;19.14;23.50
72486;BME280;60509;47.308;-122.428;2023-04-22T09:41:17;101537.27;;;19.50;23.39
72486;BME280;60509;47.308;-122.428;2023-04-22T09:43:44;101533.45;;;19.86;23.35
72486;BME280;60509;47.308;-122.428;2023-04-22T09:46:10;101533.91;;;19.55;23.44
72486;BME280;60509;47.308;-122.428;2023-04-22T09:48:41;101537.29;;;19.73;23.49
72486;BME280;60509;47.308;-122.428;2023-04-22T09:51:01;101542.50;;;19.58;23.50
72486;BME280;60509;47.308;-122.428;2023-04-22T09:53:27;101547.85;;;19.07;23.75
72486;BME280;60509;47.308;-122.428;2023-04-22T09:55:54;101548.46;;;19.02;23.75
72486;BME280;60509;47.308;-122.428;2023-04-22T09:58:21;101543.85;;;18.89;23.95
72486;BME280;60509;47.308;-122.428;2023-04-22T10:00:48;101540.06;;;18.66;23.80
72486;BME280;60509;47.308;-122.428;2023-04-22T10:03:12;101540.42;;;18.72;23.36
72486;BME280;60509;47.308;-122.428;2023-04-22T10:05:38;101539.60;;;18.70;23.27
72486;BME280;60509;47.308;-122.428;2023-04-22T10:08:04;101538.42;;;19.05;23.07
72486;BME280;60509;47.308;-122.428;2023-04-22T10:10:30;101535.80;;;19.37;23.27
72486;BME280;60509;47.308;-122.428;2023-04-22T10:12:56;101532.81;;;19.54;23.15
72486;BME280;60509;47.308;-122.428;2023-04-22T10:15:22;101533.55;;;19.22;23.22
72486;BME280;60509;47.308;-122.428;2023-04-22T10:17:50;101529.95;;;19.79;22.92
72486;BME280;60509;47.308;-122.428;2023-04-22T10:20:17;101531.39;;;19.43;23.26
72486;BME280;60509;47.308;-122.428;2023-04-22T10:22:41;101523.32;;;19.60;23.20
72486;BME280;60509;47.308;-122.428;2023-04-22T10:25:11;101523.42;;;19.39;23.30
72486;BME280;60509;47.308;-122.428;2023-04-22T10:27:31;101518.57;;;19.11;23.33
72486;BME280;60509;47.308;-122.428;2023-04-22T10:29:56;101516.51;;;18.69;23.69
72486;BME280;60509;47.308;-122.428;2023-04-22T10:32:27;101510.00;;;18.34;23.68
72486;BME280;60509;47.308;-122.428;2023-04-22T10:34:48;101511.32;;;18.81;23.44
72486;BME280;60509;47.308;-122.428;2023-04-22T10:37:16;101510.55;;;18.51;23.30
72486;BME280;60509;47.308;-122.428;2023-04-22T10:39:40;101505.75;;;19.01;23.22
72486;BME280;60509;47.308;-122.428;2023-04-22T10:42:07;101505.10;;;19.46;23.06
72486;BME280;60509;47.308;-122.428;2023-04-22T10:44:46;101507.68;;;19.17;23.26
72486;BME280;60509;47.308;-122.428;2023-04-22T10:46:58;101504.23;;;19.46;23.13
72486;BME280;60509;47.308;-122.428;2023-04-22T10:49:23;101502.89;;;19.31;23.12
72486;BME280;60509;47.308;-122.428;2023-04-22T10:51:49;101495.59;;;19.16;23.19
72486;BME280;60509;47.308;-122.428;2023-04-22T10:54:57;101487.57;;;18.89;23.18
72486;BME280;60509;47.308;-122.428;2023-04-22T10:56:59;101489.44;;;19.03;23.26
72486;BME280;60509;47.308;-122.428;2023-04-22T10:59:15;101490.56;;;18.79;23.42
72486;BME280;60509;47.308;-122.428;2023-04-22T11:01:41;101492.06;;;18.52;23.47
72486;BME280;60509;47.308;-122.428;2023-04-22T11:04:18;101495.25;;;18.57;23.51
72486;BME280;60509;47.308;-122.428;2023-04-22T11:06:22;101499.01;;;18.70;23.29
72486;BME280;60509;47.308;-122.428;2023-04-22T11:08:49;101496.89;;;18.79;23.18
72486;BME280;60509;47.308;-122.428;2023-04-22T11:11:16;101497.32;;;18.62;23.24
72486;BME280;60509;47.308;-122.428;2023-04-22T11:13:41;101497.82;;;18.66;23.09
72486;BME280;60509;47.308;-122.428;2023-04-22T11:16:07;101496.37;;;19.35;22.95
72486;BME280;60509;47.308;-122.428;2023-04-22T11:18:32;101493.43;;;19.02;23.06
72486;BME280;60509;47.308;-122.428;2023-04-22T11:21:02;101492.35;;;19.16;23.08
72486;BME280;60509;47.308;-122.428;2023-04-22T11:23:25;101490.78;;;18.94;23.16
72486;BME280;60509;47.308;-122.428;2023-04-22T11:25:55;101486.05;;;18.53;23.15
72486;BME280;60509;47.308;-122.428;2023-04-22T11:28:16;101480.09;;;18.85;23.17
72486;BME280;60509;47.308;-122.428;2023-04-22T11:30:42;101482.28;;;18.44;23.43
72486;BME280;60509;47.308;-122.428;2023-04-22T11:33:08;101485.70;;;18.62;23.28
72486;BME280;60509;47.308;-122.428;2023-04-22T11:35:34;101488.19;;;18.68;23.14
72486;BME280;60509;47.308;-122.428;2023-04-22T11:38:01;101488.18;;;18.77;22.83
72486;BME280;60509;47.308;-122.428;2023-04-22T11:40:27;101488.52;;;18.45;22.97
72486;BME280;60509;47.308;-122.428;2023-04-22T11:42:52;101485.08;;;18.91;22.95
72486;BME280;60509;47.308;-122.428;2023-04-22T11:45:18;101483.50;;;19.03;22.99
72486;BME280;60509;47.308;-122.428;2023-04-22T11:47:43;101479.43;;;18.66;23.15
72486;BME280;60509;47.308;-122.428;2023-04-22T11:50:10;101473.94;;;18.57;23.17
72486;BME280;60509;47.308;-122.428;2023-04-22T11:52:45;101473.10;;;18.46;23.28
72486;BME280;60509;47.308;-122.428;2023-04-22T11:55:01;101470.90;;;18.86;23.11
72486;BME280;60509;47.308;-122.428;2023-04-22T11:57:35;101471.78;;;18.66;23.18
72486;BME280;60509;47.308;-122.428;2023-04-22T12:00:00;101473.10;;;18.85;23.06
72486;BME280;60509;47.308;-122.428;2023-04-22T12:02:19;101471.90;;;18.29;23.21
72486;BME280;60509;47.308;-122.428;2023-04-22T12:04:45;101469.30;;;18.29;23.20
72486;BME280;60509;47.308;-122.428;2023-04-22T12:07:11;101460.82;;;18.55;22.86
72486;BME280;60509;47.308;-122.428;2023-04-22T12:09:38;101458.05;;;18.48;23.09
72486;BME280;60509;47.308;-122.428;2023-04-22T12:12:03;101453.78;;;19.31;22.79
72486;BME280;60509;47.308;-122.428;2023-04-22T12:14:31;101445.71;;;18.80;22.97